Time;durP1;ratioP1;P1;durP2;ratioP2;P2;SDS_P1;SDS_P2;PMS_P1;PMS_P2;Temp;Humidity;BMP_temperature;BMP_pressure;BME280_temperature;BME280_humidity;BME280_pressure;Samples;Min_cycle;Max_cycle;Signal;HPM_P1;HPM_P2
2022/04/24 00:01:09;;;;;;;4.80;3.72;;;;;;;13.91;48.11;100141.75;6374324;23;20013;-69
2022/04/24 00:03:41;;;;;;;4.43;3.78;;;;;;;13.85;48.35;100145.88;6373890;23;20391;-69
2022/04/24 00:06:13;;;;;;;4.32;3.85;;;;;;;13.83;48.30;100144.41;6373906;23;20010;-68
2022/04/24 00:08:44;;;;;;;4.00;3.50;;;;;;;13.81;48.23;100147.19;6373973;23;20021;-71
2022/04/24 00:11:16;;;;;;;5.10;4.22;;;;;;;13.76;49.13;100138.19;6374362;23;20002;-68
2022/04/24 00:13:48;;;;;;;4.23;3.80;;;;;;;13.72;48.85;100132.44;6373229;23;20013;-68
2022/04/24 00:16:19;;;;;;;4.50;4.10;;;;;;;13.67;49.44;100136.53;6372908;23;20009;-70
2022/04/24 00:18:50;;;;;;;5.78;4.03;;;;;;;13.60;49.60;100134.59;6347786;23;20426;-68
2022/04/24 00:21:21;;;;;;;5.03;3.70;;;;;;;13.58;49.87;100135.72;6373790;23;20345;-68
2022/04/24 00:23:53;;;;;;;6.50;4.03;;;;;;;13.49;49.68;100132.31;6373111;23;20018;-69
2022/04/24 00:26:24;;;;;;;4.55;4.03;;;;;;;13.38;50.16;100119.47;6373870;23;20053;-69
2022/04/24 00:28:55;;;;;;;5.35;4.28;;;;;;;13.41;50.04;100124.41;6372674;23;20089;-69
2022/04/24 00:31:26;;;;;;;4.28;3.88;;;;;;;13.31;50.65;100119.31;6373321;23;20006;-69
2022/04/24 00:33:58;;;;;;;4.40;3.90;;;;;;;13.26;51.03;100121.63;6373978;23;20080;-72
2022/04/24 00:36:29;;;;;;;5.60;4.15;;;;;;;13.18;51.32;100121.56;6372747;23;20101;-72
2022/04/24 00:39:00;;;;;;;4.65;4.18;;;;;;;13.12;51.40;100127.50;6373213;23;20508;-68
2022/04/24 00:41:32;;;;;;;4.10;3.70;;;;;;;13.10;51.72;100121.59;6373604;23;20538;-70
2022/04/24 00:44:03;;;;;;;7.72;4.45;;;;;;;13.01;51.87;100122.56;6371785;23;20010;-71
2022/04/24 00:46:42;;;;;;;4.45;4.05;;;;;;;13.00;51.71;100119.13;6373195;23;20057;-68
2022/04/24 00:49:14;;;;;;;4.70;4.20;;;;;;;12.89;52.05;100124.72;6373484;23;20013;-69
2022/04/24 00:51:45;;;;;;;5.35;4.40;;;;;;;12.79;52.70;100119.59;6372941;23;20057;-69
2022/04/24 00:54:17;;;;;;;4.32;3.92;;;;;;;12.81;53.00;100122.06;6372573;23;20476;-68
2022/04/24 00:56:48;;;;;;;5.20;4.32;;;;;;;12.75;53.17;100118.28;6373897;23;20002;-70
2022/04/24 00:59:19;;;;;;;5.20;4.70;;;;;;;12.64;53.53;100116.75;6347239;23;20060;-72
2022/04/24 01:01:51;;;;;;;4.93;4.43;;;;;;;12.60;54.07;100120.69;6372040;23;20267;-68
2022/04/24 01:04:22;;;;;;;5.32;4.82;;;;;;;12.57;53.79;100114.94;6373296;23;20453;-69
2022/04/24 01:06:54;;;;;;;4.60;4.10;;;;;;;12.52;53.49;100127.75;6373495;23;20012;-69
2022/04/24 01:09:26;;;;;;;4.75;4.22;;;;;;;12.41;54.29;100113.91;6373089;23;20014;-70
2022/04/24 01:11:57;;;;;;;7.90;4.35;;;;;;;12.47;54.96;100112.47;6372664;23;20396;-69
2022/04/24 01:14:30;;;;;;;6.55;4.47;;;;;;;12.45;54.02;100117.06;6372411;23;20042;-68
2022/04/24 01:17:04;;;;;;;5.50;4.93;;;;;;;12.41;54.77;100123.59;6373899;23;20104;-68
2022/04/24 01:19:35;;;;;;;5.85;4.72;;;;;;;12.33;54.50;100113.09;6373112;23;20323;-70
2022/04/24 01:22:07;;;;;;;6.22;4.68;;;;;;;12.32;54.80;100122.78;6372287;23;20002;-69
2022/04/24 01:24:38;;;;;;;5.90;4.72;;;;;;;12.28;55.18;100125.88;6372047;23;20092;-69
2022/04/24 01:27:09;;;;;;;7.15;5.13;;;;;;;12.24;54.72;100128.00;6373759;23;20477;-68
2022/04/24 01:29:40;;;;;;;10.18;5.00;;;;;;;12.18;55.77;100126.00;6372721;23;20343;-72
2022/04/24 01:32:12;;;;;;;6.68;4.88;;;;;;;12.17;55.71;100121.72;6373156;23;20017;-69
2022/04/24 01:34:43;;;;;;;5.53;4.80;;;;;;;12.15;56.07;100126.31;6372173;23;20016;-69
2022/04/24 01:37:14;;;;;;;5.80;4.72;;;;;;;12.11;55.97;100135.47;6372091;23;20012;-69
2022/04/24 01:39:46;;;;;;;4.78;4.38;;;;;;;12.08;56.03;100131.34;6372660;23;20097;-70
2022/04/24 01:42:18;;;;;;;5.40;4.82;;;;;;;12.05;56.37;100128.25;6372843;23;20016;-68
2022/04/24 01:44:49;;;;;;;5.70;4.80;;;;;;;12.06;56.74;100122.00;6372888;23;20434;-69
2022/04/24 01:47:20;;;;;;;5.70;4.85;;;;;;;12.02;56.23;100128.56;6346606;23;20017;-68
2022/04/24 01:49:52;;;;;;;4.90;4.40;;;;;;;12.05;56.18;100133.50;6372757;23;20040;-69
2022/04/24 01:52:23;;;;;;;5.22;4.70;;;;;;;12.00;56.61;100122.63;6372387;23;20027;-71
2022/04/24 01:54:55;;;;;;;5.15;4.25;;;;;;;11.98;56.69;100129.84;6372320;23;20006;-68
2022/04/24 01:57:26;;;;;;;5.47;4.55;;;;;;;11.98;56.20;100133.28;6372702;23;20041;-71
2022/04/24 01:59:57;;;;;;;5.82;4.53;;;;;;;12.00;56.58;100125.25;6373180;23;20021;-67
2022/04/24 02:02:29;;;;;;;5.97;4.97;;;;;;;11.91;56.68;100129.63;6371909;23;20006;-67
2022/04/24 02:05:00;;;;;;;5.38;4.80;;;;;;;11.94;57.25;100124.09;6371988;23;20005;-68
2022/04/24 02:07:31;;;;;;;5.40;4.90;;;;;;;11.89;57.18;100119.31;6371766;23;20073;-68
2022/04/24 02:10:03;;;;;;;5.75;5.15;;;;;;;11.86;57.13;100117.00;6372767;23;20022;-69
2022/04/24 02:12:39;;;;;;;7.00;5.00;;;;;;;11.86;57.00;100126.69;6370456;23;20025;-67
2022/04/24 02:15:10;;;;;;;5.70;5.13;;;;;;;11.80;57.41;100124.63;6372015;23;20437;-68
2022/04/24 02:17:42;;;;;;;6.40;4.88;;;;;;;11.83;56.82;100132.19;6372409;23;20073;-71
2022/04/24 02:20:13;;;;;;;4.97;4.30;;;;;;;11.79;57.38;100125.63;6372541;23;20044;-68
2022/04/24 02:22:44;;;;;;;5.03;4.53;;;;;;;11.78;57.67;100126.56;6371519;23;20552;-67
2022/04/24 02:25:17;;;;;;;7.20;5.53;;;;;;;11.76;58.09;100124.13;6371153;23;20493;-68
2022/04/24 02:27:49;;;;;;;6.07;4.78;;;;;;;11.73;57.87;100127.03;6372804;23;20002;-69
2022/04/24 02:30:25;;;;;;;7.25;4.72;;;;;;;11.77;57.97;100122.31;6346746;23;20033;-67
2022/04/24 02:32:58;;;;;;;7.18;5.10;;;;;;;11.60;58.07;100116.97;6346516;23;20041;-67
2022/04/24 02:35:32;;;;;;;5.80;5.20;;;;;;;11.68;57.39;100127.50;6345922;23;20009;-68
2022/04/24 02:38:04;;;;;;;6.00;5.40;;;;;;;11.67;57.82;100122.44;6371102;23;20014;-68
2022/04/24 02:40:35;;;;;;;5.53;5.03;;;;;;;11.62;58.16;100135.16;6345994;23;20311;-68
2022/04/24 02:43:07;;;;;;;5.85;5.25;;;;;;;11.63;58.47;100126.31;6372679;23;20509;-70
2022/04/24 02:45:40;;;;;;;7.03;5.22;;;;;;;11.61;58.47;100134.34;6372380;23;20006;-69
2022/04/24 02:48:11;;;;;;;5.57;5.07;;;;;;;11.63;58.30;100134.19;6371715;23;20032;-69
2022/04/24 02:50:42;;;;;;;8.48;5.13;;;;;;;11.65;58.61;100137.50;6372384;23;20010;-70
2022/04/24 02:53:15;;;;;;;8.05;5.97;;;;;;;11.61;58.34;100128.28;6373585;23;20065;-70
2022/04/24 02:55:46;;;;;;;6.32;5.63;;;;;;;11.59;58.92;100123.22;6374162;23;20033;-68
2022/04/24 02:58:19;;;;;;;6.43;5.78;;;;;;;11.58;59.17;100132.03;6373645;23;20013;-69
2022/04/24 03:00:50;;;;;;;7.43;5.22;;;;;;;11.60;58.85;100129.28;6373664;23;20363;-70
2022/04/24 03:03:22;;;;;;;6.75;5.88;;;;;;;11.61;58.99;100134.34;6374141;23;20504;-69
2022/04/24 03:05:53;;;;;;;7.38;6.00;;;;;;;11.61;59.62;100138.78;6375480;23;20061;-70
2022/04/24 03:08:25;;;;;;;6.43;5.82;;;;;;;11.56;59.19;100125.31;6374493;23;20373;-69
2022/04/24 03:10:56;;;;;;;6.95;5.90;;;;;;;11.54;58.81;100135.94;6373428;23;20010;-69
2022/04/24 03:13:28;;;;;;;8.63;5.88;;;;;;;11.52;59.42;100135.28;6374871;23;20013;-70
2022/04/24 03:15:59;;;;;;;7.15;6.03;;;;;;;11.54;59.67;100133.31;6373408;23;20002;-70
2022/04/24 03:18:30;;;;;;;5.78;5.28;;;;;;;11.51;59.91;100141.50;6374393;23;20445;-69
2022/04/24 03:21:02;;;;;;;7.88;6.13;;;;;;;11.46;59.15;100138.50;6373766;23;20006;-70
2022/04/24 03:23:33;;;;;;;6.90;6.20;;;;;;;11.37;60.42;100139.44;6373188;23;20009;-68
2022/04/24 03:26:05;;;;;;;6.70;6.00;;;;;;;11.36;60.55;100129.91;6372739;23;20423;-70
2022/04/24 03:28:36;;;;;;;9.88;6.80;;;;;;;11.26;60.76;100137.06;6374157;23;20057;-68
2022/04/24 03:31:07;;;;;;;6.78;6.07;;;;;;;11.26;60.78;100135.25;6374049;23;20088;-69
2022/04/24 03:33:39;;;;;;;7.18;6.47;;;;;;;11.19;60.73;100134.22;6347740;23;20013;-70
2022/04/24 03:36:10;;;;;;;7.68;6.40;;;;;;;11.10;61.45;100135.09;6373120;23;20386;-69
2022/04/24 03:38:42;;;;;;;7.60;6.72;;;;;;;11.05;62.27;100147.84;6372544;23;20541;-70
2022/04/24 03:41:13;;;;;;;7.28;6.57;;;;;;;11.01;61.85;100144.69;6373618;23;20033;-70
2022/04/24 03:43:44;;;;;;;7.28;6.57;;;;;;;10.98;62.31;100145.00;6374047;23;20009;-69
2022/04/24 03:46:16;;;;;;;8.73;6.53;;;;;;;10.88;62.94;100145.09;6374113;23;20002;-68
2022/04/24 03:48:47;;;;;;;9.68;6.82;;;;;;;10.83;63.75;100138.63;6373573;23;20578;-70
2022/04/24 03:51:18;;;;;;;7.55;6.55;;;;;;;10.82;63.66;100132.56;6373794;23;20322;-69
2022/04/24 03:53:49;;;;;;;8.40;7.10;;;;;;;10.78;63.82;100131.22;6373877;23;20005;-70
2022/04/24 03:56:21;;;;;;;7.45;6.75;;;;;;;10.77;64.14;100134.81;6373542;23;20088;-69
2022/04/24 03:58:52;;;;;;;7.68;6.45;;;;;;;10.70;64.35;100141.63;6372779;23;20045;-69
2022/04/24 04:01:23;;;;;;;7.07;6.38;;;;;;;10.60;65.17;100133.00;6346771;23;20009;-70
2022/04/24 04:03:56;;;;;;;7.55;6.70;;;;;;;10.62;65.20;100139.75;6372059;23;20081;-69
2022/04/24 04:06:27;;;;;;;9.35;7.22;;;;;;;10.60;65.91;100140.84;6371552;23;20001;-69
2022/04/24 04:08:59;;;;;;;7.45;6.70;;;;;;;10.58;66.08;100140.19;6372906;23;20075;-69
2022/04/24 04:11:30;;;;;;;9.38;7.43;;;;;;;10.53;66.22;100139.78;6373281;23;20006;-70
2022/04/24 04:14:02;;;;;;;7.60;6.68;;;;;;;10.48;66.73;100135.81;6372782;23;20033;-69
2022/04/24 04:16:33;;;;;;;6.72;6.13;;;;;;;10.40;67.07;100134.91;6348205;23;20524;-69
2022/04/24 04:19:04;;;;;;;7.60;6.90;;;;;;;10.42;67.17;100144.28;6373817;23;20089;-69
2022/04/24 04:21:36;;;;;;;8.23;6.80;;;;;;;10.37;67.90;100143.03;6372901;23;20389;-69
2022/04/24 04:24:08;;;;;;;7.53;6.70;;;;;;;10.36;67.67;100149.25;6372503;23;20052;-70
2022/04/24 04:26:40;;;;;;;7.72;7.03;;;;;;;10.34;68.10;100151.19;6373966;23;20425;-69
2022/04/24 04:29:11;;;;;;;7.75;6.93;;;;;;;10.27;68.76;100148.34;6347147;23;20274;-69
2022/04/24 04:31:42;;;;;;;8.80;7.22;;;;;;;10.19;69.37;100148.19;6372753;23;20005;-70
2022/04/24 04:34:14;;;;;;;9.52;7.47;;;;;;;10.19;69.88;100154.28;6373290;23;20041;-69
2022/04/24 04:36:45;;;;;;;7.13;6.32;;;;;;;10.16;70.23;100148.50;6372853;23;20444;-69
2022/04/24 04:39:16;;;;;;;8.38;6.80;;;;;;;10.22;70.30;100156.59;6372737;23;20014;-69
2022/04/24 04:41:48;;;;;;;7.72;6.93;;;;;;;10.16;70.95;100161.59;6373409;23;20032;-70
2022/04/24 04:44:19;;;;;;;8.43;7.57;;;;;;;10.17;70.94;100156.19;6373370;23;20006;-69
2022/04/24 04:46:50;;;;;;;9.63;7.25;;;;;;;10.17;71.56;100163.22;6373727;23;20014;-69
2022/04/24 04:49:22;;;;;;;7.93;7.10;;;;;;;10.13;71.38;100165.31;6373747;23;20016;-70
2022/04/24 04:51:53;;;;;;;8.43;7.63;;;;;;;10.12;71.45;100161.06;6373041;23;20017;-68
2022/04/24 04:54:24;;;;;;;9.50;7.20;;;;;;;10.04;72.21;100162.72;6372424;23;20084;-71
2022/04/24 04:56:55;;;;;;;8.00;7.20;;;;;;;10.06;72.37;100168.66;6373051;23;20450;-71
2022/04/24 04:59:27;;;;;;;7.95;7.15;;;;;;;10.06;72.85;100171.25;6372814;23;20068;-71
2022/04/24 05:01:58;;;;;;;8.45;7.65;;;;;;;9.97;72.79;100154.63;6373549;23;20028;-71
2022/04/24 05:04:30;;;;;;;7.85;6.55;;;;;;;10.06;73.19;100173.88;6373146;23;20006;-71
2022/04/24 05:07:01;;;;;;;7.82;7.13;;;;;;;10.04;73.46;100176.66;6371594;23;20061;-71
2022/04/24 05:09:32;;;;;;;8.88;7.35;;;;;;;10.06;73.04;100179.13;6372513;23;20017;-71
2022/04/24 05:12:05;;;;;;;7.38;6.60;;;;;;;10.07;73.78;100184.19;6372972;23;20081;-71
2022/04/24 05:14:36;;;;;;;8.13;7.13;;;;;;;10.05;73.72;100183.53;6372783;23;20024;-71
2022/04/24 05:17:07;;;;;;;7.82;6.30;;;;;;;10.13;72.93;100194.09;6373277;23;20009;-71
2022/04/24 05:19:38;;;;;;;8.00;6.72;;;;;;;10.21;72.36;100185.53;6371998;23;20441;-71
2022/04/24 05:22:10;;;;;;;9.30;7.40;;;;;;;10.22;73.27;100193.22;6372782;23;20452;-71
2022/04/24 05:24:41;;;;;;;8.10;6.80;;;;;;;10.24;72.66;100206.19;6371610;23;20361;-71
2022/04/24 05:27:12;;;;;;;11.00;7.40;;;;;;;10.27;73.15;100197.28;6372339;23;20013;-71
2022/04/24 05:29:44;;;;;;;7.43;6.53;;;;;;;10.33;72.11;100200.13;6372370;23;20080;-71
2022/04/24 05:32:16;;;;;;;7.22;6.53;;;;;;;10.33;72.23;100205.34;6373196;23;20002;-71
2022/04/24 05:34:47;;;;;;;7.65;6.38;;;;;;;10.31;72.48;100201.25;6372264;23;20437;-71
2022/04/24 05:37:18;;;;;;;7.15;6.45;;;;;;;10.34;71.97;100212.25;6371938;23;20013;-71
2022/04/24 05:39:50;;;;;;;8.48;6.40;;;;;;;10.38;71.76;100203.16;6372452;23;20021;-71
2022/04/24 05:42:21;;;;;;;7.18;6.30;;;;;;;10.39;72.31;100209.19;6372614;23;20005;-71
2022/04/24 05:44:53;;;;;;;8.98;6.55;;;;;;;10.42;72.64;100219.41;6372223;23;20006;-70
2022/04/24 05:47:24;;;;;;;10.23;7.47;;;;;;;10.45;71.73;100211.22;6372939;23;20370;-71
2022/04/24 05:49:55;;;;;;;7.78;6.10;;;;;;;10.47;71.55;100215.34;6372874;23;20399;-71
2022/04/24 05:52:27;;;;;;;7.28;6.20;;;;;;;10.51;70.79;100215.91;6371507;23;20434;-68
2022/04/24 05:54:59;;;;;;;8.40;6.65;;;;;;;10.51;71.17;100213.28;6372272;23;20430;-71
2022/04/24 05:57:30;;;;;;;7.55;6.78;;;;;;;10.54;71.84;100220.03;6372661;23;20089;-71
2022/04/24 06:00:04;;;;;;;8.10;6.55;;;;;;;10.57;71.26;100223.19;6372564;23;20006;-71
2022/04/24 06:02:39;;;;;;;8.43;7.10;;;;;;;10.57;71.35;100217.09;6372475;23;20071;-71
2022/04/24 06:05:11;;;;;;;6.97;6.20;;;;;;;10.57;69.80;100217.09;6371549;23;20496;-71
2022/04/24 06:07:42;;;;;;;10.90;7.20;;;;;;;10.63;70.05;100227.00;6372545;23;20017;-71
2022/04/24 06:10:14;;;;;;;7.00;6.28;;;;;;;10.65;69.92;100215.41;6371854;23;20334;-71
2022/04/24 06:12:52;;;;;;;11.73;6.15;;;;;;;10.69;70.38;100236.91;6370798;23;20569;-71
2022/04/24 06:15:25;;;;;;;14.60;6.80;;;;;;;10.74;69.64;100218.94;6371369;23;20025;-71
2022/04/24 06:17:58;;;;;;;6.80;6.10;;;;;;;10.75;69.67;100225.00;6371170;23;20285;-70
2022/04/24 06:20:29;;;;;;;7.27;6.30;;;;;;;10.88;69.33;100230.75;6371310;23;20009;-71
2022/04/24 06:23:01;;;;;;;7.63;6.07;;;;;;;10.91;68.65;100225.19;6372041;23;20608;-71
2022/04/24 06:25:34;;;;;;;6.88;6.03;;;;;;;11.00;68.36;100228.72;6372121;23;20194;-71
2022/04/24 06:28:05;;;;;;;7.03;6.30;;;;;;;11.09;67.78;100228.66;6372018;23;20005;-71
2022/04/24 06:30:40;;;;;;;8.35;6.30;;;;;;;11.21;67.56;100231.88;6371401;23;20006;-71
2022/04/24 06:33:12;;;;;;;7.10;5.82;;;;;;;11.32;66.52;100233.47;6372182;23;20010;-71
2022/04/24 06:35:45;;;;;;;6.63;5.90;;;;;;;11.35;65.61;100227.91;6372463;23;20077;-71
2022/04/24 06:38:16;;;;;;;7.22;5.72;;;;;;;11.47;65.57;100231.97;6371379;23;20547;-71
2022/04/24 06:40:47;;;;;;;10.43;6.10;;;;;;;11.50;64.25;100231.66;6371943;23;20005;-71
2022/04/24 06:43:19;;;;;;;13.00;5.95;;;;;;;11.65;64.47;100230.16;6372017;23;20014;-71
2022/04/24 06:45:52;;;;;;;7.72;5.82;;;;;;;11.78;63.77;100242.03;6367655;23;20060;-71
2022/04/24 06:48:23;;;;;;;10.85;6.32;;;;;;;11.83;62.78;100245.91;6369332;23;20033;-71
2022/04/24 06:50:54;;;;;;;8.15;5.93;;;;;;;11.99;63.57;100242.56;6370376;23;20013;-71
2022/04/24 06:53:28;;;;;;;5.95;5.40;;;;;;;12.08;62.55;100246.88;6371091;23;20001;-71
2022/04/24 06:55:59;;;;;;;6.10;5.40;;;;;;;12.23;61.71;100243.69;6367803;23;20013;-71
2022/04/24 06:58:30;;;;;;;6.63;5.53;;;;;;;12.32;62.00;100251.47;6370560;23;20033;-71
2022/04/24 07:01:02;;;;;;;7.40;5.97;;;;;;;12.38;59.54;100248.19;6366528;23;20005;-71
2022/04/24 07:03:34;;;;;;;6.75;5.65;;;;;;;12.57;60.51;100235.81;6366507;23;20014;-71
2022/04/24 07:06:07;;;;;;;8.27;6.35;;;;;;;12.65;60.73;100238.47;6367312;23;20017;-71
2022/04/24 07:08:38;;;;;;;6.85;5.93;;;;;;;12.67;59.24;100233.91;6366565;23;20012;-71
2022/04/24 07:11:10;;;;;;;8.82;6.25;;;;;;;12.69;58.00;100236.34;6367170;23;20021;-71
2022/04/24 07:13:41;;;;;;;7.20;6.47;;;;;;;12.88;57.29;100236.13;6367425;23;20017;-71
2022/04/24 07:16:12;;;;;;;7.93;6.53;;;;;;;13.00;57.78;100237.44;6367206;23;20441;-71
2022/04/24 07:18:43;;;;;;;7.68;6.07;;;;;;;13.09;56.72;100239.09;6366846;23;20108;-71
2022/04/24 07:21:15;;;;;;;8.00;6.32;;;;;;;13.28;56.90;100243.28;6366992;23;20084;-71
2022/04/24 07:23:46;;;;;;;8.60;6.32;;;;;;;13.33;56.80;100241.00;6365961;23;20006;-71
2022/04/24 07:26:17;;;;;;;6.82;6.13;;;;;;;13.36;55.11;100251.19;6365463;23;20002;-71
2022/04/24 07:28:49;;;;;;;8.40;6.22;;;;;;;13.57;55.56;100247.28;6367209;23;20077;-71
2022/04/24 07:31:20;;;;;;;7.70;6.57;;;;;;;13.50;54.29;100251.53;6367054;23;20090;-71
2022/04/24 07:33:52;;;;;;;6.90;6.03;;;;;;;13.61;53.55;100240.69;6367725;23;20061;-71
2022/04/24 07:36:24;;;;;;;8.48;5.93;;;;;;;13.78;53.45;100252.03;6367605;23;20416;-71
2022/04/24 07:38:55;;;;;;;6.65;5.95;;;;;;;13.93;53.43;100250.38;6367372;23;20026;-71
2022/04/24 07:41:26;;;;;;;8.18;6.35;;;;;;;14.06;53.61;100253.31;6370355;23;20002;-71
2022/04/24 07:43:58;;;;;;;8.13;6.38;;;;;;;14.20;52.50;100253.63;6367597;23;20009;-72
2022/04/24 07:46:29;;;;;;;7.50;6.20;;;;;;;14.25;52.05;100254.78;6368984;23;20002;-71
2022/04/24 07:49:01;;;;;;;7.30;6.35;;;;;;;14.28;51.04;100251.81;6367285;23;20066;-71
2022/04/24 07:51:32;;;;;;;11.45;5.85;;;;;;;14.27;51.14;100244.88;6369801;23;20497;-72
2022/04/24 07:54:03;;;;;;;8.05;5.95;;;;;;;14.39;51.13;100255.06;6369604;23;20063;-71
2022/04/24 07:56:35;;;;;;;8.85;6.72;;;;;;;14.50;51.87;100260.00;6368094;23;20049;-71
2022/04/24 07:59:06;;;;;;;11.40;6.70;;;;;;;14.54;50.98;100258.66;6341222;23;20010;-71
2022/04/24 08:01:37;;;;;;;8.32;6.13;;;;;;;14.69;49.84;100258.78;6367676;23;20565;-71
2022/04/24 08:04:09;;;;;;;6.88;6.18;;;;;;;14.74;49.76;100262.56;6368744;23;20348;-71
2022/04/24 08:06:40;;;;;;;8.77;6.50;;;;;;;14.74;49.44;100265.19;6369349;23;20414;-71
2022/04/24 08:09:11;;;;;;;11.23;6.80;;;;;;;14.75;49.43;100264.19;6368912;23;20476;-71
2022/04/24 08:11:43;;;;;;;8.88;6.10;;;;;;;14.92;48.49;100264.91;6368342;23;20013;-72
2022/04/24 08:14:14;;;;;;;11.13;6.57;;;;;;;14.89;48.44;100256.53;6367121;23;20125;-72
2022/04/24 08:16:46;;;;;;;10.23;6.50;;;;;;;15.09;47.52;100278.88;6368412;23;20489;-71
2022/04/24 08:19:18;;;;;;;8.93;6.55;;;;;;;15.10;47.75;100272.59;6368211;23;20021;-72
2022/04/24 08:21:50;;;;;;;9.02;6.15;;;;;;;15.22;48.39;100273.81;6367326;23;20180;-72
2022/04/24 08:24:21;;;;;;;7.32;6.03;;;;;;;15.62;49.24;100273.75;6368152;23;20380;-72
2022/04/24 08:26:52;;;;;;;8.70;6.70;;;;;;;15.73;47.45;100268.88;6341995;23;20032;-72
2022/04/24 08:29:24;;;;;;;8.98;6.38;;;;;;;15.74;46.52;100272.34;6369291;23;20009;-72
2022/04/24 08:31:55;;;;;;;7.82;6.82;;;;;;;15.79;45.96;100259.41;6367242;23;20073;-71
2022/04/24 08:34:26;;;;;;;7.63;6.40;;;;;;;15.93;45.31;100271.84;6366682;23;20020;-72
2022/04/24 08:36:58;;;;;;;6.80;6.20;;;;;;;16.03;45.89;100269.78;6367485;23;20101;-71
2022/04/24 08:39:32;;;;;;;11.05;7.03;;;;;;;16.14;44.91;100278.25;6366883;23;20018;-72
2022/04/24 08:42:05;;;;;;;9.57;6.82;;;;;;;16.30;45.44;100276.28;6366160;23;20370;-72
2022/04/24 08:44:37;;;;;;;9.35;6.38;;;;;;;16.35;44.51;100278.38;6340261;23;20037;-72
2022/04/24 08:47:08;;;;;;;8.55;6.80;;;;;;;16.46;44.58;100275.28;6366267;23;20044;-72
2022/04/24 08:49:40;;;;;;;8.85;7.38;;;;;;;16.52;43.73;100277.22;6368441;23;20052;-71
2022/04/24 08:52:14;;;;;;;8.70;7.65;;;;;;;16.74;43.50;100264.91;6367964;23;20544;-72
2022/04/24 08:54:45;;;;;;;11.20;6.50;;;;;;;16.68;42.46;100276.19;6371531;23;20002;-72
2022/04/24 08:57:17;;;;;;;7.95;7.15;;;;;;;16.82;42.88;100271.09;6373634;23;20057;-71
2022/04/24 08:59:49;;;;;;;7.80;7.00;;;;;;;16.87;43.06;100272.19;6372591;23;20329;-71
2022/04/24 09:02:21;;;;;;;9.38;7.28;;;;;;;17.21;43.48;100273.41;6371045;23;20080;-71
2022/04/24 09:04:53;;;;;;;8.35;7.38;;;;;;;17.25;41.28;100275.47;6370064;23;20014;-71
2022/04/24 09:07:31;;;;;;;10.30;7.90;;;;;;;17.45;42.34;100270.38;6370696;23;20057;-72
2022/04/24 09:10:11;;;;;;;9.15;7.18;;;;;;;17.50;41.28;100280.38;6373225;23;20006;-72
2022/04/24 09:12:42;;;;;;;9.27;6.57;;;;;;;17.58;41.03;100269.69;6347653;23;20016;-72
2022/04/24 09:15:17;;;;;;;7.85;7.00;;;;;;;17.65;40.51;100273.22;6372195;23;20247;-72
2022/04/24 09:17:59;;;;;;;9.02;7.03;;;;;;;17.81;40.94;100274.00;6373147;23;20010;-72
2022/04/24 09:20:34;;;;;;;13.13;8.15;;;;;;;17.81;40.87;100280.13;6372578;23;20013;-72
2022/04/24 09:23:05;;;;;;;7.97;7.20;;;;;;;17.82;40.67;100275.63;6373563;23;20433;-72
2022/04/24 09:25:38;;;;;;;9.50;6.90;;;;;;;17.82;39.08;100272.97;6347356;23;20013;-72
2022/04/24 09:28:10;;;;;;;11.07;7.70;;;;;;;17.77;39.18;100283.31;6371946;23;20072;-72
2022/04/24 09:30:50;;;;;;;10.40;7.43;;;;;;;17.92;39.62;100282.25;6372360;23;20088;-72
2022/04/24 09:33:21;;;;;;;7.90;7.10;;;;;;;17.80;38.89;100265.22;6372809;23;20093;-72
2022/04/24 09:35:55;;;;;;;9.75;7.03;;;;;;;17.92;40.06;100274.28;6373101;23;20053;-72
2022/04/24 09:38:26;;;;;;;11.20;7.90;;;;;;;17.98;39.96;100272.69;6372795;23;20053;-72
2022/04/24 09:40:57;;;;;;;8.65;7.75;;;;;;;18.26;40.29;100293.06;6341457;23;20445;-72
2022/04/24 09:43:28;;;;;;;10.57;7.70;;;;;;;18.14;37.59;100275.03;6371967;23;20002;-72
2022/04/24 09:46:00;;;;;;;8.38;7.57;;;;;;;18.17;38.94;100281.81;6371046;23;20017;-72
2022/04/24 09:48:31;;;;;;;14.88;8.52;;;;;;;18.15;38.79;100273.25;6369958;23;20029;-72
2022/04/24 09:51:03;;;;;;;8.65;7.70;;;;;;;18.36;37.95;100272.34;6369562;23;20101;-72
2022/04/24 09:53:41;;;;;;;8.75;7.82;;;;;;;18.49;38.01;100264.47;6369818;23;20006;-72
2022/04/24 09:56:15;;;;;;;9.20;7.70;;;;;;;18.67;37.65;100270.06;6372456;23;20013;-72
2022/04/24 09:58:47;;;;;;;9.45;7.72;;;;;;;18.57;38.01;100274.09;6372718;23;20057;-72
2022/04/24 10:01:18;;;;;;;10.57;7.47;;;;;;;18.47;37.82;100279.75;6372758;23;20002;-72
2022/04/24 10:03:50;;;;;;;9.05;8.15;;;;;;;18.50;39.42;100273.25;6372534;23;20429;-72
2022/04/24 10:06:22;;;;;;;12.55;8.15;;;;;;;18.53;36.85;100270.22;6371316;23;20073;-72
2022/04/24 10:08:54;;;;;;;11.43;8.32;;;;;;;18.40;37.32;100278.91;6371096;23;20014;-72
2022/04/24 10:11:25;;;;;;;8.75;7.93;;;;;;;18.61;38.16;100276.16;6372983;23;20008;-72
2022/04/24 10:14:03;;;;;;;10.48;7.65;;;;;;;18.69;37.10;100281.31;6369587;23;20017;-72
2022/04/24 10:16:34;;;;;;;9.25;8.20;;;;;;;18.57;37.39;100282.88;6373091;23;20010;-72
2022/04/24 10:19:40;;;;;;;8.70;7.90;;;;;;;18.93;36.90;100277.34;6373397;23;20033;-72
2022/04/24 10:22:23;;;;;;;12.30;9.05;;;;;;;18.83;36.29;100279.56;6372641;23;20009;-74
2022/04/24 10:25:03;;;;;;;9.45;8.52;;;;;;;18.91;36.77;100283.88;6373188;23;20354;-72
2022/04/24 10:27:46;;;;;;;11.65;9.10;;;;;;;19.07;36.91;100275.56;6371482;23;20006;-72
2022/04/24 10:30:22;;;;;;;9.23;7.95;;;;;;;19.05;37.67;100280.25;6369885;23;20010;-72
2022/04/24 10:33:15;;;;;;;10.07;8.25;;;;;;;19.16;36.03;100286.81;6371611;23;20284;-72
2022/04/24 10:36:17;;;;;;;9.32;8.05;;;;;;;19.17;35.68;100297.25;6371129;23;20464;-72
2022/04/24 10:38:57;;;;;;;8.60;7.57;;;;;;;18.98;35.64;100273.28;6346754;23;20517;-72
2022/04/24 10:41:30;;;;;;;11.00;7.97;;;;;;;18.90;36.58;100275.13;6371495;23;20057;-72
2022/04/24 10:44:15;;;;;;;9.93;8.00;;;;;;;19.20;36.47;100288.88;6371839;23;20002;-72
2022/04/24 10:46:47;;;;;;;10.05;7.45;;;;;;;19.17;35.41;100291.94;6372691;23;20006;-72
2022/04/24 10:49:19;;;;;;;11.70;7.32;;;;;;;19.14;34.93;100284.38;6372372;23;20429;-72
2022/04/24 10:52:01;;;;;;;8.83;6.70;;;;;;;19.39;35.38;100273.19;6372682;23;20133;-72
2022/04/24 10:54:39;;;;;;;9.37;7.10;;;;;;;19.33;34.90;100295.25;6372207;23;20006;-73
2022/04/24 10:57:22;;;;;;;7.53;6.60;;;;;;;19.45;34.87;100285.66;6372591;23;20261;-72
2022/04/24 10:59:55;;;;;;;9.20;6.53;;;;;;;19.54;34.98;100280.97;6372078;23;20255;-72
2022/04/24 11:02:30;;;;;;;7.88;6.90;;;;;;;19.52;34.38;100283.84;6373199;23;20018;-72
2022/04/24 11:05:04;;;;;;;8.30;6.25;;;;;;;19.51;34.53;100289.34;6371497;23;20009;-72
2022/04/24 11:07:36;;;;;;;7.95;5.97;;;;;;;19.56;33.86;100286.91;6372816;23;20378;-74
2022/04/24 11:10:09;;;;;;;9.40;6.03;;;;;;;19.56;33.92;100287.72;6372891;23;20009;-72
2022/04/24 11:12:41;;;;;;;7.20;6.10;;;;;;;19.41;32.65;100287.09;6370536;23;20053;-73
2022/04/24 11:15:14;;;;;;;7.47;6.03;;;;;;;19.50;34.44;100290.38;6373471;23;20438;-72
2022/04/24 11:17:45;;;;;;;9.60;6.72;;;;;;;19.52;33.53;100283.84;6344729;23;20006;-73
2022/04/24 11:20:16;;;;;;;8.80;6.27;;;;;;;19.53;34.13;100271.38;6373042;23;20468;-74
2022/04/24 11:22:49;;;;;;;7.93;6.18;;;;;;;19.61;34.31;100284.47;6372310;23;20010;-73
2022/04/24 11:25:25;;;;;;;9.60;6.75;;;;;;;19.59;33.85;100290.00;6372740;23;20005;-73
2022/04/24 11:27:58;;;;;;;8.52;7.18;;;;;;;19.47;34.19;100291.59;6373805;23;20002;-73
2022/04/24 11:30:33;;;;;;;9.35;6.57;;;;;;;19.52;34.71;100286.50;6372812;23;20017;-73
2022/04/24 11:33:06;;;;;;;7.93;7.07;;;;;;;19.59;35.06;100287.34;6371671;23;20013;-73
2022/04/24 11:35:39;;;;;;;7.45;6.53;;;;;;;19.67;35.11;100281.84;6371739;23;20006;-74
2022/04/24 11:38:13;;;;;;;;;;;;;;;20.37;34.30;100290.19;6374252;23;20013;-74
2022/04/24 11:40:46;;;;;;;11.00;6.38;;;;;;;19.93;33.88;100289.00;6372808;23;19905;-73
2022/04/24 11:43:19;;;;;;;;;;;;;;;20.56;34.16;100285.06;6369492;23;20010;-73
2022/04/24 11:51:32;;;;;;;8.02;5.85;;;;;;;20.01;33.83;100285.34;6373868;23;20018;-74
2022/04/24 11:54:04;;;;;;;7.53;6.20;;;;;;;20.05;34.48;100286.56;6373607;23;20013;-74